John H Macmillan Jr — WDB9907 — position and weather

sailwx.info

Track history (hours):
 
Tides and Currents Weather Stations Pressure Air Temp Water Temp Dewpoint Dewpoint Depression Visibility Wind Speed Wind Dir Waves Ship Positions

John H Macmillan Jr

Owner: American River Transportation Company, St Louis, MO. More information available from US FCC via Universal Licensing System and Coast Guard Vessel Documentation Center.

Last reported at 2018-Apr-19 14:09 UTC. Time now 2018-Apr-22 05:07 UTC.
Position N 32°43' W 091°04'.

Length 55 m; draft 3.5 m.

Type: Ship (hazmat cat B). MMSI: 366984920.

Date/timePositionNaut miles runAvg speedWind from/ knotsBaromVisibWave heightAir tempDewpointWater temp
2018-Apr-19 14:09N 32°43' W 091°04'1 3.7
2018-Apr-19 13:58N 32°42' W 091°04'2 4.9
2018-Apr-19 13:29N 32°41' W 091°06'2 4.3
2018-Apr-19 13:00N 32°39' W 091°07'2 4.8
2018-Apr-19 12:30N 32°37' W 091°09'3 5.0
2018-Apr-19 12:01N 32°35' W 091°07'2 4.5
2018-Apr-19 11:31N 32°33' W 091°07'2 4.7
2018-Apr-19 11:01N 32°30' W 091°07'2 4.4
2018-Apr-19 10:30N 32°28' W 091°06'2 4.7
2018-Apr-19 10:00N 32°27' W 091°04'2 4.8
2018-Apr-19 09:31N 32°26' W 091°01'2 4.3
2018-Apr-19 09:01N 32°24' W 090°60'2 4.3
2018-Apr-19 08:31N 32°22' W 091°00'2 4.5
2018-Apr-19 08:01N 32°21' W 090°58'2 3.9
2018-Apr-19 07:31N 32°20' W 090°55'2 3.1
2018-Apr-19 07:01N 32°19' W 090°54'2 4.5
2018-Apr-19 06:31N 32°18' W 090°56'2 4.2
2018-Apr-19 06:01N 32°16' W 090°58'2 4.8
2018-Apr-19 05:31N 32°13' W 090°59'2 4.7
2018-Apr-19 05:01N 32°11' W 090°60'2 4.5
2018-Apr-19 04:31N 32°09' W 090°60'2 4.1
2018-Apr-19 04:00N 32°08' W 091°01'3 3.9
2018-Apr-19 03:10N 32°08' W 091°05'1 4.4
2018-Apr-19 03:00N 32°07' W 091°06'2 3.9
2018-Apr-19 02:30N 32°05' W 091°05'3 4.6
2018-Apr-19 01:55N 32°02' W 091°05'2 4.2
2018-Apr-19 01:30N 32°01' W 091°05'46 4.2
2018-Apr-18 14:30N 31°20' W 091°31'3 5.9
2018-Apr-18 14:00N 31°17' W 091°31'6 2.9
2018-Apr-18 11:51N 31°12' W 091°36'2 4.7
2018-Apr-18 11:23N 31°10' W 091°36'3 5.7
2018-Apr-18 10:50N 31°08' W 091°38'  
2018-Apr-14 17:55N 31°59' W 091°10'4 8.9
2018-Apr-14 17:30N 31°59' W 091°06'8 7.4
2018-Apr-14 16:25N 32°07' W 091°06'3 7.9
2018-Apr-14 16:01N 32°07' W 091°02'4 8.0
2018-Apr-14 15:30N 32°11' W 090°60'5 9.4
2018-Apr-14 15:00N 32°15' W 090°58'5 9.4
2018-Apr-14 14:31N 32°19' W 090°55'2 4.3
2018-Apr-14 14:01N 32°21' W 090°55'2 4.1
2018-Apr-14 13:30N 32°21' W 090°57'0 0.1
2018-Apr-14 13:01N 32°21' W 090°57'0 0.0
2018-Apr-14 12:30N 32°21' W 090°57'0 0.0
2018-Apr-14 12:01N 32°21' W 090°57'0 0.0
2018-Apr-14 11:31N 32°21' W 090°57'0 0.0
2018-Apr-14 11:01N 32°21' W 090°57'0 0.0
2018-Apr-14 10:31N 32°21' W 090°57'0 0.0
2018-Apr-14 10:01N 32°21' W 090°57'0 0.0
2018-Apr-14 09:31N 32°21' W 090°57'0 0.0
2018-Apr-14 09:01N 32°21' W 090°57'0 0.0
2018-Apr-14 08:30N 32°21' W 090°57'0 0.0
2018-Apr-14 08:00N 32°21' W 090°57'0 0.0
2018-Apr-14 07:30N 32°21' W 090°57'0 0.1
2018-Apr-14 07:00N 32°21' W 090°58'2 3.3
2018-Apr-14 06:30N 32°21' W 090°59'4 7.8
2018-Apr-14 06:00N 32°25' W 090°60'4 8.9
2018-Apr-14 05:31N 32°27' W 091°05'6 7.9
2018-Apr-14 04:41N 32°33' W 091°06'2 8.6
2018-Apr-14 04:30N 32°34' W 091°07'  
2018-Apr-11 05:31N 38°31' W 090°16'0 8.4
2018-Apr-11 05:30N 38°31' W 090°16'4 7.9
2018-Apr-11 04:57N 38°35' W 090°13'1 2.8
2018-Apr-11 04:28N 38°36' W 090°12'0 0.0
2018-Apr-11 03:44N 38°36' W 090°12'0 0.0
2018-Apr-11 03:25N 38°36' W 090°12'0 0.0
2018-Apr-11 02:52N 38°36' W 090°12'0 0.0
2018-Apr-11 00:56N 38°36' W 090°12'  
Track history (hours):
 
Tides and Currents Weather Stations Pressure Air Temp Water Temp Dewpoint Dewpoint Depression Visibility Wind Speed Wind Dir Waves Ship Positions

John H Macmillan Jr

Owner: American River Transportation Company, St Louis, MO. More information available from US FCC via Universal Licensing System and Coast Guard Vessel Documentation Center.

Last reported at 2018-Apr-19 14:09 UTC. Time now 2018-Apr-22 05:07 UTC.
Position N 32°43' W 091°04'.

Length 55 m; draft 3.5 m.

Type: Ship (hazmat cat B). MMSI: 366984920.

Date/timePositionNaut miles runAvg speedWind from/ knotsBaromVisibWave heightAir tempDewpointWater temp
2018-Apr-19 14:09N 32°43' W 091°04'1 3.7
2018-Apr-19 13:58N 32°42' W 091°04'2 4.9
2018-Apr-19 13:29N 32°41' W 091°06'2 4.3
2018-Apr-19 13:00N 32°39' W 091°07'2 4.8
2018-Apr-19 12:30N 32°37' W 091°09'3 5.0
2018-Apr-19 12:01N 32°35' W 091°07'2 4.5
2018-Apr-19 11:31N 32°33' W 091°07'2 4.7
2018-Apr-19 11:01N 32°30' W 091°07'2 4.4
2018-Apr-19 10:30N 32°28' W 091°06'2 4.7
2018-Apr-19 10:00N 32°27' W 091°04'2 4.8
2018-Apr-19 09:31N 32°26' W 091°01'2 4.3
2018-Apr-19 09:01N 32°24' W 090°60'2 4.3
2018-Apr-19 08:31N 32°22' W 091°00'2 4.5
2018-Apr-19 08:01N 32°21' W 090°58'2 3.9
2018-Apr-19 07:31N 32°20' W 090°55'2 3.1
2018-Apr-19 07:01N 32°19' W 090°54'2 4.5
2018-Apr-19 06:31N 32°18' W 090°56'2 4.2
2018-Apr-19 06:01N 32°16' W 090°58'2 4.8
2018-Apr-19 05:31N 32°13' W 090°59'2 4.7
2018-Apr-19 05:01N 32°11' W 090°60'2 4.5
2018-Apr-19 04:31N 32°09' W 090°60'2 4.1
2018-Apr-19 04:00N 32°08' W 091°01'3 3.9
2018-Apr-19 03:10N 32°08' W 091°05'1 4.4
2018-Apr-19 03:00N 32°07' W 091°06'2 3.9
2018-Apr-19 02:30N 32°05' W 091°05'3 4.6
2018-Apr-19 01:55N 32°02' W 091°05'2 4.2
2018-Apr-19 01:30N 32°01' W 091°05'46 4.2
2018-Apr-18 14:30N 31°20' W 091°31'3 5.9
2018-Apr-18 14:00N 31°17' W 091°31'6 2.9
2018-Apr-18 11:51N 31°12' W 091°36'2 4.7
2018-Apr-18 11:23N 31°10' W 091°36'3 5.7
2018-Apr-18 10:50N 31°08' W 091°38'  
2018-Apr-14 17:55N 31°59' W 091°10'4 8.9
2018-Apr-14 17:30N 31°59' W 091°06'8 7.4
2018-Apr-14 16:25N 32°07' W 091°06'3 7.9
2018-Apr-14 16:01N 32°07' W 091°02'4 8.0
2018-Apr-14 15:30N 32°11' W 090°60'5 9.4
2018-Apr-14 15:00N 32°15' W 090°58'5 9.4
2018-Apr-14 14:31N 32°19' W 090°55'2 4.3
2018-Apr-14 14:01N 32°21' W 090°55'2 4.1
2018-Apr-14 13:30N 32°21' W 090°57'0 0.1
2018-Apr-14 13:01N 32°21' W 090°57'0 0.0
2018-Apr-14 12:30N 32°21' W 090°57'0 0.0
2018-Apr-14 12:01N 32°21' W 090°57'0 0.0
2018-Apr-14 11:31N 32°21' W 090°57'0 0.0
2018-Apr-14 11:01N 32°21' W 090°57'0 0.0
2018-Apr-14 10:31N 32°21' W 090°57'0 0.0
2018-Apr-14 10:01N 32°21' W 090°57'0 0.0
2018-Apr-14 09:31N 32°21' W 090°57'0 0.0
2018-Apr-14 09:01N 32°21' W 090°57'0 0.0
2018-Apr-14 08:30N 32°21' W 090°57'0 0.0
2018-Apr-14 08:00N 32°21' W 090°57'0 0.0
2018-Apr-14 07:30N 32°21' W 090°57'0 0.1
2018-Apr-14 07:00N 32°21' W 090°58'2 3.3
2018-Apr-14 06:30N 32°21' W 090°59'4 7.8
2018-Apr-14 06:00N 32°25' W 090°60'4 8.9
2018-Apr-14 05:31N 32°27' W 091°05'6 7.9
2018-Apr-14 04:41N 32°33' W 091°06'2 8.6
2018-Apr-14 04:30N 32°34' W 091°07'  
2018-Apr-11 05:31N 38°31' W 090°16'0 8.4
2018-Apr-11 05:30N 38°31' W 090°16'4 7.9
2018-Apr-11 04:57N 38°35' W 090°13'1 2.8
2018-Apr-11 04:28N 38°36' W 090°12'0 0.0
2018-Apr-11 03:44N 38°36' W 090°12'0 0.0
2018-Apr-11 03:25N 38°36' W 090°12'0 0.0
2018-Apr-11 02:52N 38°36' W 090°12'0 0.0
2018-Apr-11 00:56N 38°36' W 090°12'  

Dump ship's entire track history